createdAt,value
2022-11-20T13:16:14.368Z,20.70
2022-11-20T13:17:11.426Z,31.00
2022-11-20T13:18:11.217Z,32.30
2022-11-20T13:19:11.023Z,30.00
2022-11-20T13:20:11.096Z,29.90
2022-11-20T13:21:10.894Z,32.20
2022-11-20T13:22:10.969Z,34.10
2022-11-20T13:23:10.932Z,31.20
2022-11-20T13:24:10.963Z,30.30
2022-11-20T13:25:16.193Z,30.10
2022-11-20T13:26:12.888Z,29.80
2022-11-20T13:27:10.890Z,31.60
2022-11-20T13:28:10.896Z,30.70
2022-11-20T13:29:10.883Z,30.60
2022-11-20T13:30:10.882Z,32.90
2022-11-20T13:31:10.918Z,30.50
2022-11-20T13:32:10.862Z,30.80
2022-11-20T13:33:10.880Z,33.80
2022-11-20T13:34:10.984Z,31.00
2022-11-20T13:35:10.863Z,30.30
2022-11-20T13:36:10.832Z,31.30
2022-11-20T13:37:10.811Z,31.30
2022-11-20T13:38:10.837Z,33.40
2022-11-20T13:39:10.860Z,33.20
2022-11-20T13:40:11.598Z,32.50
2022-11-20T13:41:10.831Z,33.20
2022-11-20T13:42:10.820Z,32.80
2022-11-20T13:43:10.802Z,33.30
2022-11-20T13:44:10.828Z,32.50
2022-11-20T13:45:10.798Z,31.10
2022-11-20T13:46:10.801Z,34.10
2022-11-20T13:47:10.761Z,34.80
2022-11-20T13:48:10.762Z,34.80
2022-11-20T13:49:10.764Z,37.10
2022-11-20T13:50:10.700Z,35.20
2022-11-20T13:51:10.758Z,42.00
2022-11-20T13:52:10.777Z,39.80
2022-11-20T13:53:10.704Z,37.90
2022-11-20T13:54:10.728Z,38.00
2022-11-20T13:55:10.795Z,38.70
2022-11-20T13:56:10.730Z,37.60
2022-11-20T13:57:10.720Z,36.20
2022-11-20T13:58:10.748Z,36.70
2022-11-20T13:59:14.716Z,34.80
2022-11-20T14:00:11.798Z,34.20
2022-11-20T14:01:10.664Z,34.60
2022-11-20T14:02:10.637Z,36.10
2022-11-20T14:03:10.631Z,35.30
2022-11-20T14:04:10.634Z,37.90
2022-11-20T14:05:10.654Z,41.50
2022-11-20T14:06:10.670Z,37.90
2022-11-20T14:07:10.676Z,37.00
2022-11-20T14:08:10.631Z,35.80
2022-11-20T14:09:10.642Z,35.80
2022-11-20T14:10:10.646Z,33.00
2022-11-20T14:11:10.617Z,35.30
2022-11-20T14:12:11.930Z,33.60
2022-11-20T14:13:10.597Z,33.00
2022-11-20T14:14:10.611Z,37.70
2022-11-20T14:15:10.580Z,37.80
2022-11-20T14:16:10.564Z,37.70
2022-11-20T14:17:10.588Z,36.90
2022-11-20T14:18:10.557Z,38.40
2022-11-20T14:19:10.575Z,38.20
2022-11-20T14:20:10.633Z,39.30
2022-11-20T14:21:10.508Z,37.70
2022-11-20T14:22:11.516Z,36.70
2022-11-20T14:23:10.605Z,36.70
2022-11-20T14:24:10.501Z,33.30
2022-11-20T14:25:11.294Z,33.40
2022-11-20T14:26:10.508Z,35.90
2022-11-20T14:27:10.533Z,34.20
2022-11-20T14:28:10.499Z,42.90
2022-11-20T14:29:10.511Z,40.70
2022-11-20T14:30:10.658Z,35.50
2022-11-20T14:31:10.434Z,36.70
2022-11-20T14:32:10.435Z,36.20
2022-11-20T14:33:10.475Z,39.20
2022-11-20T14:34:10.482Z,35.60
2022-11-20T14:35:10.431Z,35.10
2022-11-20T14:36:10.447Z,39.30
2022-11-20T14:37:15.255Z,36.70
2022-11-20T14:38:12.450Z,41.60
2022-11-20T14:39:10.382Z,34.10
2022-11-20T14:40:10.438Z,38.30
2022-11-20T14:41:10.444Z,39.40
2022-11-20T14:42:10.381Z,38.10
2022-11-20T14:43:10.377Z,37.80
2022-11-20T14:44:10.393Z,38.60
2022-11-20T14:45:10.427Z,38.60
2022-11-20T14:46:10.350Z,36.80
2022-11-20T14:47:10.343Z,39.60
2022-11-20T14:48:10.330Z,40.30
2022-11-20T14:49:10.308Z,41.60
2022-11-20T14:50:10.370Z,39.00
2022-11-20T14:51:10.302Z,35.10
2022-11-20T14:52:10.390Z,37.10
2022-11-20T14:53:10.291Z,35.80
2022-11-20T14:54:10.274Z,33.70
2022-11-20T14:55:10.264Z,34.70
2022-11-20T14:56:10.302Z,36.50
2022-11-20T14:57:10.307Z,37.20
2022-11-20T14:58:10.326Z,36.60
2022-11-20T14:59:10.297Z,36.20
2022-11-20T15:00:10.268Z,40.90
2022-11-20T15:01:10.270Z,38.20
2022-11-20T15:02:10.237Z,39.40
2022-11-20T15:03:10.244Z,36.30
2022-11-20T15:04:10.316Z,34.90
2022-11-20T15:05:10.234Z,35.80
2022-11-20T15:06:10.172Z,34.00
2022-11-20T15:07:10.249Z,35.40
2022-11-20T15:08:10.238Z,40.10
2022-11-20T15:09:10.227Z,38.50
2022-11-20T15:10:10.225Z,38.10
2022-11-20T15:11:10.182Z,34.80
2022-11-20T15:12:10.136Z,38.90
2022-11-20T15:13:12.985Z,46.50
2022-11-20T15:14:11.189Z,46.10
2022-11-20T15:15:10.175Z,45.30
2022-11-20T15:16:10.180Z,44.50
2022-11-20T15:17:10.184Z,42.20
2022-11-20T15:18:10.132Z,42.90
2022-11-20T15:19:10.141Z,44.50
2022-11-20T15:20:10.109Z,51.40
2022-11-20T15:21:10.159Z,48.40
2022-11-20T15:22:10.043Z,45.30
2022-11-20T15:23:10.076Z,41.40
2022-11-20T15:24:10.092Z,39.30
2022-11-20T15:25:10.073Z,65.20
2022-11-20T15:26:10.399Z,41.00
2022-11-20T15:27:10.148Z,40.70
2022-11-20T15:28:10.075Z,36.20
2022-11-20T15:29:09.998Z,36.30
2022-11-20T15:30:10.055Z,38.60
2022-11-20T15:31:10.045Z,36.50
2022-11-20T15:32:13.346Z,36.00
2022-11-20T15:33:11.078Z,38.80
2022-11-20T15:34:10.703Z,47.70
2022-11-20T15:35:09.990Z,50.80
2022-11-20T15:36:10.022Z,48.40
2022-11-20T15:37:10.031Z,56.60
2022-11-20T15:38:10.029Z,47.90
2022-11-20T15:39:10.041Z,46.10
2022-11-20T15:40:09.974Z,40.50
2022-11-20T15:41:10.068Z,39.20
2022-11-20T15:42:10.011Z,39.60
2022-11-20T15:43:13.442Z,46.40
2022-11-20T15:44:10.951Z,41.60
2022-11-20T15:45:09.996Z,43.90
2022-11-20T15:46:10.273Z,44.00
2022-11-20T15:47:09.928Z,46.60
2022-11-20T15:48:10.178Z,42.80
2022-11-20T15:49:11.209Z,48.00
2022-11-20T15:50:09.922Z,45.70
2022-11-20T15:51:09.943Z,44.90
2022-11-20T15:52:09.916Z,41.40
2022-11-20T15:53:09.909Z,40.20
2022-11-20T15:54:09.869Z,40.70
2022-11-20T15:55:10.072Z,41.70
2022-11-20T15:56:11.161Z,37.20
